Time;durP1;ratioP1;P1;durP2;ratioP2;P2;SDS_P1;SDS_P2;PMS_P1;PMS_P2;Temp;Humidity;BMP_temperature;BMP_pressure;BME280_temperature;BME280_humidity;BME280_pressure;Samples;Min_cycle;Max_cycle;Signal;HPM_P1;HPM_P2
2024/03/01 00:00:55;;;;;;;33.03;23.53;;;;;;;7.13;78.10;94479.31;5032257;28;20639;-85
2024/03/01 00:03:22;;;;;;;34.93;22.87;;;;;;;6.97;78.03;94486.41;5033398;28;20206;-86
2024/03/01 00:05:48;;;;;;;33.17;23.70;;;;;;;6.87;78.90;94484.97;5033461;28;20195;-85
2024/03/01 00:08:17;;;;;;;31.70;22.73;;;;;;;6.96;78.59;94493.31;5033686;28;20594;-85
2024/03/01 00:10:45;;;;;;;32.27;23.20;;;;;;;7.04;78.36;94488.09;5033817;28;20609;-85
2024/03/01 00:13:11;;;;;;;31.70;22.07;;;;;;;7.03;78.09;94478.03;5032995;28;20265;-85
2024/03/01 00:15:38;;;;;;;33.70;22.63;;;;;;;6.93;78.39;94468.06;5033194;28;20190;-85
2024/03/01 00:18:05;;;;;;;32.07;22.60;;;;;;;6.80;79.13;94473.84;5031037;28;20237;-85
2024/03/01 00:20:35;;;;;;;28.93;22.67;;;;;;;6.77;79.39;94488.78;5032452;28;20203;-84
2024/03/01 00:23:01;;;;;;;34.33;23.47;;;;;;;6.77;79.42;94499.00;5028410;28;20195;-85
2024/03/01 00:25:27;;;;;;;30.77;22.70;;;;;;;6.77;80.01;94509.22;5015931;28;20542;-86
2024/03/01 00:27:55;;;;;;;31.13;22.70;;;;;;;6.79;79.94;94507.28;5033016;28;20206;-84
2024/03/01 00:30:24;;;;;;;30.07;23.47;;;;;;;6.81;79.36;94488.25;5033014;28;20578;-84
2024/03/01 00:32:50;;;;;;;31.47;22.97;;;;;;;6.82;79.28;94486.47;5032186;28;20198;-85
2024/03/01 00:35:17;;;;;;;30.87;22.77;;;;;;;6.82;79.12;94484.72;5031962;28;20286;-85
2024/03/01 00:37:43;;;;;;;29.77;22.10;;;;;;;6.86;78.92;94472.34;5032974;28;20249;-85
2024/03/01 00:40:10;;;;;;;34.67;23.27;;;;;;;6.91;78.73;94473.41;5033117;28;20289;-84
2024/03/01 00:42:42;;;;;;;32.20;22.20;;;;;;;6.98;78.34;94464.97;5032867;28;20206;-85
2024/03/01 00:45:10;;;;;;;30.33;22.37;;;;;;;6.99;78.22;94454.56;5032051;28;20194;-84
2024/03/01 00:47:43;;;;;;;30.23;22.83;;;;;;;6.97;77.65;94436.03;5031927;28;20218;-85
2024/03/01 00:50:12;;;;;;;31.80;21.97;;;;;;;6.94;77.68;94437.19;5026333;28;20202;-85
2024/03/01 00:52:39;;;;;;;32.13;23.00;;;;;;;6.93;77.60;94434.81;5032349;28;20198;-85
2024/03/01 00:55:06;;;;;;;30.80;22.10;;;;;;;6.80;77.68;94427.81;5032224;28;20191;-85
2024/03/01 00:57:32;;;;;;;27.07;21.10;;;;;;;6.80;77.96;94437.25;5033108;28;20234;-85
2024/03/01 01:00:03;;;;;;;31.40;21.60;;;;;;;6.72;78.72;94445.06;5032876;28;20201;-85
2024/03/01 01:02:30;;;;;;;31.13;22.63;;;;;;;6.66;78.83;94440.66;5031110;28;20740;-86
2024/03/01 01:04:56;;;;;;;27.07;20.83;;;;;;;6.71;79.10;94453.69;5031723;28;20196;-85
2024/03/01 01:07:24;;;;;;;29.00;22.03;;;;;;;6.78;78.90;94446.88;5029763;28;20249;-85
2024/03/01 01:09:50;;;;;;;31.87;22.87;;;;;;;6.79;78.80;94454.38;5031148;28;20264;-85
2024/03/01 01:12:17;;;;;;;33.20;22.17;;;;;;;6.82;78.76;94450.66;5031707;28;20198;-86
2024/03/01 01:14:43;;;;;;;30.47;22.03;;;;;;;6.82;78.73;94438.66;5031808;28;20286;-85
2024/03/01 01:17:09;;;;;;;31.00;22.23;;;;;;;6.81;78.56;94439.63;5031740;28;20238;-85
2024/03/01 01:19:38;;;;;;;33.13;20.80;;;;;;;6.83;78.41;94427.47;5023066;28;20194;-85
2024/03/01 01:22:05;;;;;;;29.53;21.40;;;;;;;6.88;78.03;94411.56;5030041;28;20195;-85
2024/03/01 01:24:31;;;;;;;29.47;21.50;;;;;;;6.94;77.59;94392.91;5031242;28;20229;-84
2024/03/01 01:26:57;;;;;;;29.17;21.47;;;;;;;6.86;77.25;94373.38;5031905;28;20214;-85
2024/03/01 01:29:24;;;;;;;31.90;22.10;;;;;;;6.73;77.57;94380.94;5032031;28;20853;-86
2024/03/01 01:31:51;;;;;;;30.13;22.07;;;;;;;6.71;77.71;94387.19;5031691;28;20205;-85
2024/03/01 01:34:17;;;;;;;33.17;22.47;;;;;;;6.75;78.33;94404.53;5031339;28;20198;-85
2024/03/01 01:36:45;;;;;;;28.73;21.27;;;;;;;6.56;79.05;94411.03;5030828;28;20214;-85
2024/03/01 01:39:12;;;;;;;32.23;21.37;;;;;;;6.44;80.48;94442.38;5030120;28;20210;-85
2024/03/01 01:41:38;;;;;;;29.90;21.73;;;;;;;6.50;80.68;94455.25;5031095;28;20229;-83
2024/03/01 01:44:05;;;;;;;32.67;21.00;;;;;;;6.56;80.32;94453.72;5031842;28;20190;-85
2024/03/01 01:46:32;;;;;;;28.57;20.87;;;;;;;6.61;80.36;94435.28;5030536;28;20344;-85
2024/03/01 01:48:59;;;;;;;28.27;21.50;;;;;;;6.57;80.79;94442.50;5020510;28;20199;-86
2024/03/01 01:51:26;;;;;;;28.63;22.07;;;;;;;6.59;80.47;94443.13;5028788;28;20576;-84
2024/03/01 01:53:54;;;;;;;30.27;22.17;;;;;;;6.56;80.88;94449.38;5028247;28;20206;-84
2024/03/01 01:56:20;;;;;;;29.30;21.73;;;;;;;6.60;81.05;94457.50;5030485;28;20789;-86
2024/03/01 01:58:47;;;;;;;28.97;21.53;;;;;;;6.71;80.53;94446.03;5029634;28;20229;-85
2024/03/01 02:01:15;;;;;;;29.67;21.37;;;;;;;6.79;79.92;94425.44;5030775;28;20202;-84
2024/03/01 02:03:49;;;;;;;28.50;21.07;;;;;;;6.84;79.44;94418.81;5031004;28;20775;-85
2024/03/01 02:06:15;;;;;;;28.90;21.37;;;;;;;6.93;78.35;94404.13;5029893;28;20237;-85
2024/03/01 02:08:42;;;;;;;27.33;19.87;;;;;;;6.94;77.92;94390.34;5030453;28;20214;-85
2024/03/01 02:11:10;;;;;;;32.47;21.27;;;;;;;6.96;77.61;94382.50;5027663;28;20201;-85
2024/03/01 02:13:38;;;;;;;28.47;20.20;;;;;;;6.89;77.69;94382.44;5023139;28;20198;-85
2024/03/01 02:16:05;;;;;;;27.63;20.13;;;;;;;6.85;78.07;94388.91;5030856;28;20205;-85
2024/03/01 02:18:33;;;;;;;25.77;19.83;;;;;;;6.92;77.93;94394.88;5030625;28;20229;-85
2024/03/01 02:21:07;;;;;;;24.97;18.77;;;;;;;6.97;77.68;94384.88;5029775;28;20780;-85
2024/03/01 02:23:35;;;;;;;26.73;19.43;;;;;;;7.01;77.28;94368.19;5014574;28;20197;-85
2024/03/01 02:26:01;;;;;;;28.50;19.83;;;;;;;7.01;76.59;94360.50;5027019;28;20692;-85
2024/03/01 02:28:28;;;;;;;28.93;19.50;;;;;;;6.97;76.30;94330.34;5028446;28;20229;-85
2024/03/01 02:30:55;;;;;;;30.27;19.90;;;;;;;6.95;75.44;94302.38;5030259;28;20202;-85
2024/03/01 02:33:23;;;;;;;28.10;18.93;;;;;;;6.87;75.57;94298.22;5029372;28;20200;-85
2024/03/01 02:35:50;;;;;;;26.43;20.23;;;;;;;6.83;75.86;94306.44;5030554;28;20202;-84
2024/03/01 02:38:16;;;;;;;25.17;18.57;;;;;;;6.70;76.20;94319.13;5029526;28;20226;-85
2024/03/01 02:40:44;;;;;;;28.50;19.93;;;;;;;6.69;76.85;94343.91;5030112;28;20796;-85
2024/03/01 02:43:12;;;;;;;27.57;19.70;;;;;;;6.70;76.93;94344.69;5027385;28;20206;-85
2024/03/01 02:45:38;;;;;;;32.00;20.73;;;;;;;6.49;77.61;94351.38;5028966;28;20846;-84
2024/03/01 02:48:05;;;;;;;31.50;20.57;;;;;;;6.43;78.31;94372.56;5030102;28;20221;-85
2024/03/01 02:50:32;;;;;;;31.63;20.53;;;;;;;6.45;79.05;94396.19;5030314;28;20624;-85
2024/03/01 02:52:58;;;;;;;31.33;21.10;;;;;;;6.50;79.11;94404.09;5029780;28;20206;-84
2024/03/01 02:55:24;;;;;;;29.77;20.40;;;;;;;6.52;79.33;94414.16;5030099;28;20618;-85
2024/03/01 02:57:53;;;;;;;31.77;21.00;;;;;;;6.53;79.47;94413.19;5030441;28;20237;-85
2024/03/01 03:00:21;;;;;;;29.30;21.00;;;;;;;6.53;80.00;94416.53;5024531;28;20202;-85
2024/03/01 03:02:47;;;;;;;29.63;21.70;;;;;;;6.57;80.19;94430.53;5030484;28;20202;-84
2024/03/01 03:05:14;;;;;;;31.23;22.17;;;;;;;6.54;80.46;94436.00;5029399;28;20202;-85
2024/03/01 03:07:41;;;;;;;33.07;22.47;;;;;;;6.47;81.01;94457.34;5029697;28;20225;-85
2024/03/01 03:10:08;;;;;;;37.97;22.27;;;;;;;6.42;81.78;94470.66;5041463;28;20198;-84
2024/03/01 03:12:34;;;;;;;34.57;22.30;;;;;;;6.47;81.35;94470.13;5012973;28;20235;-85
2024/03/01 03:15:07;;;;;;;33.57;22.37;;;;;;;6.50;81.48;94477.47;5023017;28;20202;-85
2024/03/01 03:17:33;;;;;;;34.50;23.13;;;;;;;6.52;81.29;94471.19;5030821;28;20249;-86
2024/03/01 03:20:00;;;;;;;30.87;22.17;;;;;;;6.53;81.22;94466.88;5029434;28;20190;-85
2024/03/01 03:22:26;;;;;;;31.83;22.03;;;;;;;6.54;81.24;94473.56;5030287;28;20209;-84
2024/03/01 03:24:53;;;;;;;33.90;23.23;;;;;;;6.55;81.42;94475.94;5032200;28;20260;-85
2024/03/01 03:27:19;;;;;;;34.03;22.97;;;;;;;6.47;81.75;94493.94;5034265;28;20248;-85
2024/03/01 03:29:49;;;;;;;32.80;21.93;;;;;;;6.43;82.35;94508.03;5034507;28;20745;-84
2024/03/01 03:32:18;;;;;;;35.50;23.10;;;;;;;6.44;82.83;94513.94;5030383;28;20218;-85
2024/03/01 03:34:44;;;;;;;32.73;22.43;;;;;;;6.48;82.53;94513.44;5035703;28;20217;-85
2024/03/01 03:37:13;;;;;;;54.60;25.00;;;;;;;6.34;83.60;94544.91;5033602;28;20313;-85
2024/03/01 03:39:42;;;;;;;37.27;22.97;;;;;;;6.35;83.82;94548.25;5034121;28;20210;-85
2024/03/01 03:42:09;;;;;;;34.90;23.13;;;;;;;6.36;84.24;94568.50;5033906;28;20206;-84
2024/03/01 03:44:36;;;;;;;32.00;21.73;;;;;;;6.33;85.17;94580.88;5033803;28;20285;-85
2024/03/01 03:47:03;;;;;;;34.80;22.53;;;;;;;6.35;85.24;94592.47;5031878;28;20218;-85
2024/03/01 03:49:34;;;;;;;103.57;25.50;;;;;;;6.21;86.62;94626.47;5033836;28;20214;-84
2024/03/01 03:52:01;;;;;;;37.00;22.70;;;;;;;6.27;87.35;94660.78;5033764;28;20204;-85
2024/03/01 03:54:28;;;;;;;34.00;23.00;;;;;;;6.32;87.66;94666.19;5032983;28;20230;-85
2024/03/01 03:56:53;;;;;;;36.50;23.77;;;;;;;6.34;87.93;94671.91;5033444;28;20210;-86
2024/03/01 03:59:20;;;;;;;40.27;24.57;;;;;;;6.35;88.77;94676.06;5033515;28;20240;-86
2024/03/01 04:01:49;;;;;;;35.53;23.67;;;;;;;6.39;88.83;94677.28;5033461;28;20194;-85
2024/03/01 04:04:16;;;;;;;38.70;23.77;;;;;;;6.27;89.91;94699.13;5030424;28;20236;-85
2024/03/01 04:06:44;;;;;;;64.40;26.30;;;;;;;6.27;90.46;94699.91;5033811;28;20202;-85
2024/03/01 04:09:10;;;;;;;32.93;23.90;;;;;;;6.33;90.61;94706.13;5033654;28;20194;-85
2024/03/01 04:11:37;;;;;;;31.97;23.30;;;;;;;6.38;90.77;94702.06;5034198;28;20194;-85
2024/03/01 04:14:03;;;;;;;90.30;26.13;;;;;;;6.43;90.46;94688.75;5033634;28;20190;-85
2024/03/01 04:16:30;;;;;;;54.97;24.30;;;;;;;6.42;90.56;94697.41;5034202;28;20198;-85
2024/03/01 04:18:56;;;;;;;31.90;23.50;;;;;;;6.47;90.96;94703.59;5031068;28;20225;-84
2024/03/01 04:21:23;;;;;;;34.93;23.00;;;;;;;6.53;90.66;94702.13;5032856;28;20198;-85
2024/03/01 04:23:50;;;;;;;31.43;23.23;;;;;;;6.54;91.00;94698.59;5033452;28;20194;-84
2024/03/01 04:26:18;;;;;;;41.43;23.33;;;;;;;6.52;91.19;94687.75;5033313;28;20244;-85
2024/03/01 04:28:45;;;;;;;39.57;23.03;;;;;;;6.40;91.56;94700.13;5033050;28;20222;-84
2024/03/01 04:31:11;;;;;;;35.70;24.27;;;;;;;6.31;92.66;94713.97;5033856;28;20194;-85
2024/03/01 04:33:39;;;;;;;38.47;22.30;;;;;;;6.38;92.58;94724.28;5032896;28;20289;-84
2024/03/01 04:36:07;;;;;;;34.23;23.80;;;;;;;6.38;92.86;94737.84;5029418;28;20198;-84
2024/03/01 04:38:33;;;;;;;52.17;23.77;;;;;;;6.38;92.74;94742.16;5033023;28;20317;-85
2024/03/01 04:41:01;;;;;;;74.20;25.60;;;;;;;6.33;93.31;94758.03;5033321;28;20206;-84
2024/03/01 04:43:27;;;;;;;36.43;23.53;;;;;;;6.33;93.88;94768.25;5033083;28;20201;-85
2024/03/01 04:45:54;;;;;;;36.43;24.53;;;;;;;6.36;94.45;94777.31;5033187;28;20198;-85
2024/03/01 04:48:20;;;;;;;33.40;22.97;;;;;;;6.46;94.47;94770.25;5027904;28;20596;-84
2024/03/01 04:50:49;;;;;;;31.40;22.57;;;;;;;6.51;93.95;94765.41;5022468;28;20229;-84
2024/03/01 04:53:16;;;;;;;29.57;22.67;;;;;;;6.54;93.60;94759.97;5030092;28;20198;-85
2024/03/01 04:55:42;;;;;;;30.13;22.90;;;;;;;6.54;93.50;94754.84;5032248;28;20210;-85
2024/03/01 04:58:10;;;;;;;31.33;23.37;;;;;;;6.54;93.73;94758.16;5030281;28;20223;-85
2024/03/01 05:00:36;;;;;;;32.50;22.80;;;;;;;6.57;93.49;94752.72;5025060;28;20201;-84
2024/03/01 05:03:06;;;;;;;30.57;22.43;;;;;;;6.61;93.20;94765.97;5030798;28;20214;-84
2024/03/01 05:05:33;;;;;;;29.80;22.63;;;;;;;6.67;93.41;94754.25;5031409;28;20198;-85
2024/03/01 05:08:00;;;;;;;28.00;22.40;;;;;;;6.64;93.20;94750.28;5025650;28;20226;-84
2024/03/01 05:10:26;;;;;;;32.60;23.67;;;;;;;6.70;92.69;94753.91;5031149;28;20202;-84
2024/03/01 05:12:53;;;;;;;48.43;23.83;;;;;;;6.61;93.33;94762.63;5027904;28;20198;-85
2024/03/01 05:15:20;;;;;;;32.63;23.80;;;;;;;6.59;93.16;94776.38;5030702;28;20206;-86
2024/03/01 05:17:47;;;;;;;30.53;22.47;;;;;;;6.62;93.72;94777.00;5030559;28;20241;-86
2024/03/01 05:20:16;;;;;;;29.97;22.53;;;;;;;6.57;93.37;94785.16;5030670;28;20203;-86
2024/03/01 05:22:43;;;;;;;35.80;23.03;;;;;;;6.51;93.70;94796.09;5031366;28;20206;-86
2024/03/01 05:25:17;;;;;;;30.87;21.33;;;;;;;6.46;93.94;94804.28;5025724;28;20209;-85
2024/03/01 05:27:44;;;;;;;30.70;23.03;;;;;;;6.47;94.20;94799.97;5025291;28;20218;-86
2024/03/01 05:30:16;;;;;;;29.37;22.43;;;;;;;6.49;94.38;94809.06;5027979;28;20221;-86
2024/03/01 05:32:45;;;;;;;27.87;21.63;;;;;;;6.45;93.67;94797.56;5027827;28;20281;-85
2024/03/01 05:35:12;;;;;;;25.33;20.77;;;;;;;6.41;93.35;94798.06;5029238;28;20198;-84
2024/03/01 05:37:39;;;;;;;27.03;21.73;;;;;;;6.35;93.94;94806.44;5027662;28;20245;-83
2024/03/01 05:40:10;;;;;;;26.87;21.10;;;;;;;6.41;94.27;94819.31;5017304;28;20207;-85
2024/03/01 05:42:37;;;;;;;25.80;20.67;;;;;;;6.36;93.96;94818.22;5027616;28;20292;-86
2024/03/01 05:45:06;;;;;;;28.13;20.87;;;;;;;6.44;93.98;94813.88;5011954;28;20199;-84
2024/03/01 05:47:34;;;;;;;28.80;20.77;;;;;;;6.43;93.26;94812.28;5012308;28;20314;-86
2024/03/01 05:50:02;;;;;;;26.53;21.33;;;;;;;6.47;93.46;94823.75;5012054;28;20199;-85
2024/03/01 05:52:31;;;;;;;26.50;20.60;;;;;;;6.52;93.09;94811.28;5023160;28;20600;-85
2024/03/01 05:54:58;;;;;;;27.17;19.77;;;;;;;6.55;92.70;94813.47;5030409;28;20194;-85
2024/03/01 05:57:25;;;;;;;24.67;19.40;;;;;;;6.62;92.33;94802.56;5024888;28;20260;-86
2024/03/01 05:59:51;;;;;;;24.63;19.57;;;;;;;6.62;91.30;94789.78;5030107;28;20218;-85
2024/03/01 06:02:23;;;;;;;25.93;19.90;;;;;;;6.66;91.43;94791.03;5029862;28;20190;-86
2024/03/01 06:04:50;;;;;;;23.57;18.57;;;;;;;6.68;91.12;94791.66;5029838;28;20746;-86
2024/03/01 06:07:19;;;;;;;23.97;19.00;;;;;;;6.71;91.29;94791.31;5028999;28;20221;-86
2024/03/01 06:09:46;;;;;;;28.17;18.77;;;;;;;6.69;90.99;94788.94;5029722;28;20827;-86
2024/03/01 06:12:12;;;;;;;25.13;19.70;;;;;;;6.68;91.59;94792.44;5023515;28;20206;-85
2024/03/01 06:14:40;;;;;;;26.13;19.33;;;;;;;6.71;92.33;94804.91;5029733;28;20198;-85
2024/03/01 06:17:06;;;;;;;26.97;20.13;;;;;;;6.77;92.53;94800.84;5031464;23;20535;-85
2024/03/01 06:19:32;;;;;;;25.40;19.47;;;;;;;6.76;92.28;94800.03;5009005;28;20215;-85
2024/03/01 06:22:01;;;;;;;26.70;20.00;;;;;;;6.79;91.99;94789.47;4996253;28;20199;-85
2024/03/01 06:24:28;;;;;;;26.47;20.23;;;;;;;6.79;92.66;94804.03;4994180;28;20199;-86
2024/03/01 06:27:00;;;;;;;26.57;19.40;;;;;;;6.76;93.34;94814.59;4989646;28;20228;-86
2024/03/01 06:29:26;;;;;;;33.77;23.97;;;;;;;6.83;92.68;94803.50;4969011;28;20227;-86
2024/03/01 06:31:53;;;;;;;35.53;26.03;;;;;;;6.87;92.52;94802.22;4983130;28;20209;-85
2024/03/01 06:34:19;;;;;;;33.50;25.00;;;;;;;6.91;92.77;94813.69;4987326;28;20208;-86
2024/03/01 06:36:49;;;;;;;26.00;20.20;;;;;;;6.91;92.19;94805.22;4973018;28;20235;-86
2024/03/01 06:39:19;;;;;;;26.77;20.00;;;;;;;6.89;91.68;94804.59;4975851;28;20223;-86
2024/03/01 06:41:47;;;;;;;24.33;19.33;;;;;;;6.90;91.52;94803.63;4987542;28;20230;-86
2024/03/01 06:44:14;;;;;;;25.93;19.40;;;;;;;6.92;91.05;94799.94;4978218;28;20588;-86
2024/03/01 06:46:40;;;;;;;26.57;20.13;;;;;;;6.93;91.73;94811.72;4971406;28;20785;-86
2024/03/01 06:49:08;;;;;;;26.60;19.53;;;;;;;6.95;91.21;94806.44;4981768;28;20866;-85
2024/03/01 06:51:35;;;;;;;26.27;20.10;;;;;;;6.92;90.93;94810.16;4973898;28;20223;-85
2024/03/01 06:54:01;;;;;;;27.47;20.47;;;;;;;6.92;91.21;94806.81;4973115;28;20215;-85
2024/03/01 06:56:28;;;;;;;24.30;19.20;;;;;;;6.99;90.73;94799.22;4978227;28;20212;-84
2024/03/01 06:58:56;;;;;;;25.03;19.03;;;;;;;7.00;90.90;94806.72;4971821;28;20224;-84
2024/03/01 07:01:22;;;;;;;27.33;20.23;;;;;;;7.03;90.87;94803.03;4970969;28;20212;-84
2024/03/01 07:03:48;;;;;;;24.50;19.73;;;;;;;7.06;90.88;94816.28;4972785;28;20230;-84
2024/03/01 07:06:15;;;;;;;26.97;20.70;;;;;;;7.09;90.36;94810.81;4972832;28;20196;-85
2024/03/01 07:08:44;;;;;;;24.73;19.20;;;;;;;7.11;90.47;94811.44;4989109;28;20219;-84
2024/03/01 07:11:10;;;;;;;25.17;19.90;;;;;;;7.14;90.40;94817.94;4986896;28;20218;-85
2024/03/01 07:13:37;;;;;;;30.40;20.40;;;;;;;7.16;90.41;94806.56;4973112;28;20207;-85
2024/03/01 07:16:05;;;;;;;28.40;19.47;;;;;;;7.09;90.23;94810.81;4972841;28;20203;-85
2024/03/01 07:18:32;;;;;;;28.57;23.00;;;;;;;7.15;89.69;94799.88;4974733;28;20238;-86
2024/03/01 07:20:58;;;;;;;30.67;20.77;;;;;;;7.10;89.56;94803.94;4972861;28;20204;-84
2024/03/01 07:23:25;;;;;;;28.00;19.47;;;;;;;7.03;90.26;94803.81;4973145;28;20204;-85
2024/03/01 07:25:51;;;;;;;28.17;20.83;;;;;;;7.07;90.11;94804.28;4982966;28;20604;-85
2024/03/01 07:28:18;;;;;;;26.60;20.73;;;;;;;7.12;90.13;94799.44;4987111;28;20653;-86
2024/03/01 07:30:44;;;;;;;26.57;19.63;;;;;;;7.13;90.18;94806.13;4990342;28;20214;-86
2024/03/01 07:33:15;;;;;;;29.00;20.13;;;;;;;7.17;89.74;94800.50;4969462;28;20670;-86
2024/03/01 07:35:42;;;;;;;29.23;20.30;;;;;;;7.19;89.79;94793.44;4981123;28;20199;-85
2024/03/01 07:38:09;;;;;;;26.60;19.20;;;;;;;7.24;90.16;94800.59;4986826;28;20616;-86
2024/03/01 07:40:36;;;;;;;30.83;21.67;;;;;;;7.27;90.13;94802.81;4980130;28;20308;-85
2024/03/01 07:43:02;;;;;;;29.60;20.50;;;;;;;7.23;90.19;94810.03;4971884;28;20205;-85
2024/03/01 07:45:29;;;;;;;27.27;20.27;;;;;;;7.23;90.67;94807.47;4974559;28;20230;-85
2024/03/01 07:47:55;;;;;;;29.07;21.20;;;;;;;7.32;90.31;94813.31;4986191;28;20226;-86
2024/03/01 07:50:23;;;;;;;30.33;21.30;;;;;;;7.38;90.66;94810.03;4973494;28;20200;-86
2024/03/01 07:52:49;;;;;;;28.80;20.73;;;;;;;7.41;90.44;94806.34;4977597;28;20211;-86
2024/03/01 07:55:16;;;;;;;30.90;20.77;;;;;;;7.41;93.51;94871.16;4994260;28;20203;-85
2024/03/01 07:57:42;;;;;;;35.83;26.47;;;;;;;7.49;91.66;94837.00;4983928;28;20224;-85
2024/03/01 08:00:11;;;;;;;37.83;29.40;;;;;;;7.51;92.38;94848.63;4993943;28;20239;-85
2024/03/01 08:02:38;;;;;;;35.63;23.67;;;;;;;7.55;92.26;94847.31;4979281;28;20200;-86
2024/03/01 08:05:06;;;;;;;29.77;21.50;;;;;;;7.65;90.95;94834.28;4969445;28;20201;-84
2024/03/01 08:07:34;;;;;;;28.57;21.37;;;;;;;7.73;91.29;94825.69;4974222;28;20666;-85
2024/03/01 08:10:00;;;;;;;33.40;21.83;;;;;;;7.78;90.72;94816.50;4973318;28;20197;-86
2024/03/01 08:12:27;;;;;;;29.43;21.00;;;;;;;7.81;91.00;94813.59;4983912;28;20701;-84
2024/03/01 08:14:54;;;;;;;31.27;22.47;;;;;;;7.87;90.73;94812.88;4979959;28;20204;-85
2024/03/01 08:17:20;;;;;;;31.90;22.67;;;;;;;7.90;90.79;94811.69;4985062;28;20232;-86
2024/03/01 08:19:50;;;;;;;31.77;21.53;;;;;;;7.92;91.28;94823.38;4985728;28;20270;-86
2024/03/01 08:22:19;;;;;;;30.87;21.83;;;;;;;7.93;91.76;94834.41;4977772;28;20205;-85
2024/03/01 08:24:50;;;;;;;28.77;22.20;;;;;;;8.00;91.84;94826.81;4977264;28;20241;-86
2024/03/01 08:27:22;;;;;;;30.00;21.70;;;;;;;8.00;92.68;94842.19;4982271;28;20223;-86
2024/03/01 08:29:48;;;;;;;33.07;23.93;;;;;;;8.07;92.24;94845.66;4995690;28;20246;-85
2024/03/01 08:32:28;;;;;;;31.50;22.77;;;;;;;8.10;92.51;94846.06;4978155;28;20302;-85
2024/03/01 08:34:56;;;;;;;31.97;22.00;;;;;;;8.18;92.30;94847.75;4977337;28;20242;-86
2024/03/01 08:37:24;;;;;;;32.17;23.13;;;;;;;8.27;92.14;94841.53;4977519;28;20224;-86
2024/03/01 08:39:54;;;;;;;31.53;22.83;;;;;;;8.28;91.62;94828.50;4982166;28;20255;-85
2024/03/01 08:42:20;;;;;;;34.17;23.40;;;;;;;8.32;91.50;94824.66;4981615;28;20237;-86
2024/03/01 08:44:53;;;;;;;35.10;24.40;;;;;;;8.36;91.74;94822.53;4979626;28;20258;-85
2024/03/01 08:47:26;;;;;;;34.10;22.33;;;;;;;8.39;91.26;94824.72;4969227;28;20263;-86
2024/03/01 08:50:36;;;;;;;34.67;23.73;;;;;;;8.49;90.34;94820.09;4977963;28;20197;-86
2024/03/01 08:53:12;;;;;;;34.00;23.07;;;;;;;8.56;90.48;94810.69;4975174;28;20598;-85
2024/03/01 08:55:43;;;;;;;31.83;21.60;;;;;;;8.57;91.22;94829.44;4974047;28;20208;-84
2024/03/01 08:58:23;;;;;;;34.30;22.97;;;;;;;8.62;91.10;94822.00;4979422;28;20231;-85
2024/03/01 09:00:52;;;;;;;32.23;23.77;;;;;;;8.75;90.50;94818.75;4976505;28;20601;-84
2024/03/01 09:03:24;;;;;;;30.90;22.40;;;;;;;8.82;89.55;94804.22;4978758;28;20419;-86
2024/03/01 09:05:53;;;;;;;36.47;23.27;;;;;;;8.90;89.27;94801.50;4975413;28;20662;-85
2024/03/01 09:08:23;;;;;;;32.50;24.30;;;;;;;8.93;89.44;94814.78;4977612;28;20254;-85
2024/03/01 09:10:57;;;;;;;34.67;23.40;;;;;;;8.93;88.77;94806.28;4966220;28;20221;-85
2024/03/01 09:13:27;;;;;;;28.13;22.47;;;;;;;9.00;88.78;94802.81;4958695;28;20202;-85
2024/03/01 09:15:56;;;;;;;31.73;23.10;;;;;;;9.09;88.26;94793.16;4986559;28;20607;-85
2024/03/01 09:18:42;;;;;;;34.47;24.20;;;;;;;9.11;88.08;94777.56;4977610;28;20232;-85
2024/03/01 09:21:37;;;;;;;30.50;22.57;;;;;;;9.14;88.05;94787.47;4958562;28;20233;-86
2024/03/01 09:24:05;;;;;;;34.43;24.53;;;;;;;9.18;87.96;94794.63;4977012;28;20239;-85
2024/03/01 09:26:33;;;;;;;35.57;25.70;;;;;;;9.22;87.28;94783.00;4976006;28;20211;-84
2024/03/01 09:29:01;;;;;;;33.70;24.10;;;;;;;9.29;87.39;94777.91;4988584;28;20274;-85
2024/03/01 09:31:28;;;;;;;31.00;23.80;;;;;;;9.34;87.17;94778.94;4993533;28;20226;-85
2024/03/01 09:33:54;;;;;;;38.17;23.87;;;;;;;9.42;86.91;94772.84;4977967;28;20226;-84
2024/03/01 09:36:22;;;;;;;32.90;22.23;;;;;;;9.47;86.32;94760.22;4986235;28;20229;-85
2024/03/01 09:38:53;;;;;;;30.47;22.73;;;;;;;9.53;86.16;94768.94;4991137;28;20233;-85
2024/03/01 09:41:28;;;;;;;32.43;23.33;;;;;;;9.54;86.29;94762.81;4978822;28;20271;-85
2024/03/01 09:44:02;;;;;;;35.10;24.43;;;;;;;9.50;85.63;94759.84;4974236;28;20204;-85
2024/03/01 09:46:38;;;;;;;32.90;24.70;;;;;;;9.47;85.34;94755.06;4985299;28;20207;-84
2024/03/01 09:49:20;;;;;;;31.03;22.73;;;;;;;9.49;85.45;94762.59;4990536;28;20219;-85
2024/03/01 09:51:57;;;;;;;32.17;23.60;;;;;;;9.46;85.32;94745.78;4991923;28;20202;-85
2024/03/01 09:54:34;;;;;;;32.23;23.50;;;;;;;9.46;85.29;94745.78;4977373;28;20210;-84
2024/03/01 09:57:11;;;;;;;32.43;24.37;;;;;;;9.48;85.78;94754.09;4977075;28;20212;-84
2024/03/01 09:59:46;;;;;;;33.03;24.30;;;;;;;9.53;85.23;94745.81;4972618;28;20258;-85
2024/03/01 10:02:36;;;;;;;35.23;24.67;;;;;;;9.48;85.77;94748.97;4975563;28;20243;-84
2024/03/01 10:05:16;;;;;;;31.90;23.13;;;;;;;9.55;85.82;94754.94;4976332;28;20235;-84
2024/03/01 10:07:49;;;;;;;35.13;25.00;;;;;;;9.52;85.63;94767.34;4967549;28;20792;-85
2024/03/01 10:10:36;;;;;;;32.83;23.50;;;;;;;9.61;86.18;94779.88;4977799;28;20196;-86
2024/03/01 10:13:13;;;;;;;33.30;25.60;;;;;;;9.60;85.98;94768.00;4977683;28;20634;-85
2024/03/01 10:15:54;;;;;;;33.30;24.97;;;;;;;9.58;85.98;94774.31;4974844;28;20199;-85
2024/03/01 10:18:52;;;;;;;43.50;32.60;;;;;;;9.59;86.09;94789.56;4977494;28;20236;-85
2024/03/01 10:21:26;;;;;;;34.33;24.23;;;;;;;9.66;86.11;94780.09;4977103;28;20234;-85
2024/03/01 10:24:19;;;;;;;33.03;25.07;;;;;;;9.72;85.94;94768.25;4956164;29;20227;-85
2024/03/01 10:26:53;;;;;;;37.37;25.07;;;;;;;9.78;85.43;94764.94;4958393;28;20205;-85
2024/03/01 10:29:38;;;;;;;33.60;24.93;;;;;;;9.76;86.28;94774.59;4974794;28;20227;-85
2024/03/01 10:32:16;;;;;;;33.40;24.10;;;;;;;9.87;85.27;94753.47;4973133;28;20228;-85
2024/03/01 10:34:53;;;;;;;35.07;24.57;;;;;;;9.98;84.84;94749.56;4973428;28;20206;-86
2024/03/01 10:37:28;;;;;;;36.80;24.90;;;;;;;9.98;85.32;94755.50;4974329;28;20224;-85
2024/03/01 10:40:03;;;;;;;34.10;24.97;;;;;;;9.98;85.14;94752.94;4974674;28;20216;-85
2024/03/01 10:42:30;;;;;;;32.77;24.67;;;;;;;9.98;85.09;94739.28;4981932;28;20227;-85
2024/03/01 10:45:05;;;;;;;34.80;25.93;;;;;;;10.07;85.24;94732.19;4987341;28;20199;-84
2024/03/01 10:47:34;;;;;;;35.97;24.13;;;;;;;10.14;84.39;94727.84;4976898;28;20232;-86
2024/03/01 10:50:08;;;;;;;33.83;25.33;;;;;;;10.23;84.32;94722.34;4988147;28;20211;-85
2024/03/01 10:52:37;;;;;;;38.00;27.30;;;;;;;10.27;84.26;94718.41;4990286;28;20224;-85
2024/03/01 10:55:07;;;;;;;30.67;23.20;;;;;;;10.26;83.71;94700.59;4985635;28;20707;-85
2024/03/01 10:57:40;;;;;;;34.63;23.27;;;;;;;10.23;84.15;94711.28;4984172;28;20219;-84
2024/03/01 11:00:12;;;;;;;29.70;23.17;;;;;;;10.25;84.39;94707.50;4978519;28;20231;-85
2024/03/01 11:02:49;;;;;;;28.87;22.83;;;;;;;10.32;83.51;94686.94;4975550;28;20208;-85
2024/03/01 11:05:24;;;;;;;30.13;23.10;;;;;;;10.33;83.81;94698.84;4977710;28;20948;-85
2024/03/01 11:07:59;;;;;;;30.77;22.83;;;;;;;10.22;83.23;94682.19;4966810;28;20222;-85
2024/03/01 11:10:28;;;;;;;30.97;22.90;;;;;;;10.25;82.98;94665.56;4985179;28;20184;-86
2024/03/01 11:13:00;;;;;;;29.90;22.63;;;;;;;10.36;82.87;94668.34;4981024;28;20211;-85
2024/03/01 11:15:29;;;;;;;30.77;22.93;;;;;;;10.36;83.07;94668.34;4975679;28;20197;-85
2024/03/01 11:18:01;;;;;;;29.37;22.10;;;;;;;10.37;82.37;94657.09;4974237;28;20227;-84
2024/03/01 11:20:32;;;;;;;28.87;22.53;;;;;;;10.30;82.98;94663.19;4974273;28;20252;-84
2024/03/01 11:23:14;;;;;;;33.70;23.47;;;;;;;10.36;82.67;94663.22;4976108;28;20192;-83
2024/03/01 11:25:48;;;;;;;29.93;22.07;;;;;;;10.36;82.16;94642.63;4976606;28;20204;-83
2024/03/01 11:28:17;;;;;;;28.13;21.93;;;;;;;10.32;81.24;94618.28;4976229;28;20223;-84
2024/03/01 11:30:47;;;;;;;24.87;19.33;;;;;;;10.32;80.48;94592.56;4977703;28;20191;-85
2024/03/01 11:33:17;;;;;;;25.80;19.90;;;;;;;10.32;78.91;94548.03;4975682;28;20208;-85